Time;durP1;ratioP1;P1;durP2;ratioP2;P2;SDS_P1;SDS_P2;PMS_P1;PMS_P2;Temp;Humidity;BMP_temperature;BMP_pressure;BME280_temperature;BME280_humidity;BME280_pressure;Samples;Min_cycle;Max_cycle;Signal;HPM_P1;HPM_P2
2023/10/26 00:02:14;;;;;;;;;;;;;;;21.06;46.63;94039.81;10479368;28;2685;-58
2023/10/26 00:07:14;;;;;;;;;;;;;;;21.03;46.62;94038.59;10478728;28;2597;-53
2023/10/26 00:12:14;;;;;;;;;;;;;;;21.04;46.61;94042.75;10475317;28;2673;-55
2023/10/26 00:17:14;;;;;;;;;;;;;;;21.00;46.79;94049.72;10485179;28;2535;-57
2023/10/26 00:22:15;;;;;;;;;;;;;;;21.00;46.70;94036.53;10476162;28;2594;-57
2023/10/26 00:27:15;;;;;;;;;;;;;;;20.99;46.60;94040.28;10473706;28;2571;-55
2023/10/26 00:32:15;;;;;;;;;;;;;;;20.98;46.77;94030.03;10478170;28;2543;-57
2023/10/26 00:37:16;;;;;;;;;;;;;;;20.97;46.50;94031.94;10474431;28;2523;-56
2023/10/26 00:42:16;;;;;;;;;;;;;;;20.95;46.50;94028.84;10478982;28;2585;-58
2023/10/26 00:47:16;;;;;;;;;;;;;;;20.95;46.73;94039.38;10456094;28;2575;-55
2023/10/26 00:52:16;;;;;;;;;;;;;;;20.93;46.25;94046.81;10475647;28;5057;-56
2023/10/26 00:57:17;;;;;;;;;;;;;;;20.93;46.43;94061.84;10465778;28;2605;-57
2023/10/26 01:02:17;;;;;;;;;;;;;;;20.91;46.50;94064.78;10476289;28;2524;-55
2023/10/26 01:07:18;;;;;;;;;;;;;;;20.90;46.23;94060.59;10482468;28;2634;-54
2023/10/26 01:12:19;;;;;;;;;;;;;;;20.89;46.39;94066.97;10475759;28;2542;-58
2023/10/26 01:17:19;;;;;;;;;;;;;;;20.88;46.52;94057.50;10442201;28;2786;-57
2023/10/26 01:22:19;;;;;;;;;;;;;;;20.88;46.21;94046.19;10453878;28;2812;-57
2023/10/26 01:27:19;;;;;;;;;;;;;;;20.86;46.30;94051.78;10471643;28;2541;-57
2023/10/26 01:32:20;;;;;;;;;;;;;;;20.85;46.12;94046.84;10471046;28;2598;-57
2023/10/26 01:37:20;;;;;;;;;;;;;;;20.84;46.50;94030.25;10471943;28;2785;-56
2023/10/26 01:42:20;;;;;;;;;;;;;;;20.84;46.16;94021.59;10453815;28;2606;-58
2023/10/26 01:47:21;;;;;;;;;;;;;;;20.83;46.04;94020.06;10460247;28;2591;-57
2023/10/26 01:52:21;;;;;;;;;;;;;;;20.81;46.17;94015.09;10475005;28;5077;-57
2023/10/26 01:57:22;;;;;;;;;;;;;;;20.81;46.09;94012.44;10478814;28;2555;-56
2023/10/26 02:02:22;;;;;;;;;;;;;;;20.80;46.05;94010.91;10494030;28;2909;-58
2023/10/26 02:07:22;;;;;;;;;;;;;;;20.78;46.05;94001.78;10486566;28;2921;-58
2023/10/26 02:12:23;;;;;;;;;;;;;;;20.78;46.35;94004.41;10465604;28;2692;-56
2023/10/26 02:17:23;;;;;;;;;;;;;;;20.77;46.16;94013.41;10477836;28;2636;-58
2023/10/26 02:22:23;;;;;;;;;;;;;;;20.76;46.07;94011.84;10484864;28;2770;-58
2023/10/26 02:27:23;;;;;;;;;;;;;;;20.75;46.10;94008.44;10483400;28;2515;-58
2023/10/26 02:32:24;;;;;;;;;;;;;;;20.74;46.17;94004.28;10483735;28;2762;-57
2023/10/26 02:37:24;;;;;;;;;;;;;;;20.74;46.16;94006.13;10480236;28;2583;-57
2023/10/26 02:42:24;;;;;;;;;;;;;;;20.73;45.95;94007.25;10480823;28;2799;-58
2023/10/26 02:47:25;;;;;;;;;;;;;;;20.72;46.10;94013.56;10483195;28;2885;-56
2023/10/26 02:52:25;;;;;;;;;;;;;;;20.70;46.33;94010.50;10479566;28;2601;-58
2023/10/26 02:57:25;;;;;;;;;;;;;;;20.69;46.16;94007.06;10486715;28;2586;-58
2023/10/26 03:02:25;;;;;;;;;;;;;;;20.69;46.12;94006.31;10482608;28;2538;-58
2023/10/26 03:07:26;;;;;;;;;;;;;;;20.68;46.29;94002.13;10482239;28;2546;-55
2023/10/26 03:12:26;;;;;;;;;;;;;;;20.66;45.92;93999.81;10476456;28;2869;-57
2023/10/26 03:17:26;;;;;;;;;;;;;;;20.66;46.28;94002.47;10478302;28;2807;-56
2023/10/26 03:22:26;;;;;;;;;;;;;;;20.66;46.18;94002.47;10471784;28;2657;-57
2023/10/26 03:27:27;;;;;;;;;;;;;;;20.65;46.44;94000.16;10467853;28;2789;-56
2023/10/26 03:32:27;;;;;;;;;;;;;;;20.64;46.23;94007.25;10458997;28;2588;-56
2023/10/26 03:37:27;;;;;;;;;;;;;;;20.63;45.98;94016.22;10477297;28;2978;-58
2023/10/26 03:42:28;;;;;;;;;;;;;;;20.63;46.05;94010.22;10470220;28;2975;-58
2023/10/26 03:47:28;;;;;;;;;;;;;;;20.62;46.22;94001.53;10476309;28;2845;-57
2023/10/26 03:52:28;;;;;;;;;;;;;;;20.61;46.02;94010.50;10475870;28;5287;-57
2023/10/26 03:57:29;;;;;;;;;;;;;;;20.60;45.85;94006.34;10469324;28;2908;-58
2023/10/26 04:02:29;;;;;;;;;;;;;;;20.60;46.14;94010.84;10475345;28;2563;-57
2023/10/26 04:07:29;;;;;;;;;;;;;;;20.59;46.08;93990.84;10472990;28;2659;-56
2023/10/26 04:12:30;;;;;;;;;;;;;;;20.61;45.92;93992.09;10482011;28;2586;-58
2023/10/26 04:17:30;;;;;;;;;;;;;;;20.66;45.67;93997.19;10477244;28;2520;-59
2023/10/26 04:22:31;;;;;;;;;;;;;;;20.69;45.58;93985.25;10479443;28;2607;-57
2023/10/26 04:27:32;;;;;;;;;;;;;;;20.71;45.85;93986.47;10472953;28;2646;-58
2023/10/26 04:32:32;;;;;;;;;;;;;;;20.76;45.67;93983.69;10476873;28;2931;-59
2023/10/26 04:37:32;;;;;;;;;;;;;;;20.82;45.61;93976.34;10477514;28;2571;-57
2023/10/26 04:42:32;;;;;;;;;;;;;;;20.86;45.68;93982.53;10476083;28;2802;-58
2023/10/26 04:47:33;;;;;;;;;;;;;;;20.91;45.42;93969.97;10445618;28;2587;-58
2023/10/26 04:52:33;;;;;;;;;;;;;;;20.96;45.47;93961.09;10476790;28;5544;-58
2023/10/26 04:57:34;;;;;;;;;;;;;;;21.01;45.34;93964.34;10472560;28;2667;-58
2023/10/26 05:02:35;;;;;;;;;;;;;;;21.05;45.47;93973.19;10470530;28;2905;-58
2023/10/26 05:07:36;;;;;;;;;;;;;;;21.12;45.28;93979.81;10475105;28;2606;-58
2023/10/26 05:12:36;;;;;;;;;;;;;;;21.15;44.98;93979.16;10477532;28;2615;-58
2023/10/26 05:17:37;;;;;;;;;;;;;;;21.17;44.89;93982.25;10480436;28;2559;-58
2023/10/26 05:22:37;;;;;;;;;;;;;;;21.22;44.87;93987.34;10479734;28;2586;-58
2023/10/26 05:27:38;;;;;;;;;;;;;;;21.25;44.91;93981.41;10482269;28;2563;-59
2023/10/26 05:32:39;;;;;;;;;;;;;;;21.29;44.66;93985.00;10472213;28;2591;-58
2023/10/26 05:37:39;;;;;;;;;;;;;;;21.32;44.30;93976.44;10477774;28;2535;-59
2023/10/26 05:42:39;;;;;;;;;;;;;;;21.34;44.58;93985.56;10475610;28;2937;-58
2023/10/26 05:47:40;;;;;;;;;;;;;;;21.34;44.09;93984.78;10473680;28;5668;-58
2023/10/26 05:52:40;;;;;;;;;;;;;;;21.36;44.25;93985.22;10474926;28;2742;-59
2023/10/26 05:57:40;;;;;;;;;;;;;;;21.44;43.64;93982.53;10471719;28;2661;-57
2023/10/26 06:02:40;;;;;;;;;;;;;;;21.53;44.24;93975.34;10477684;28;2558;-54
2023/10/26 06:07:41;;;;;;;;;;;;;;;21.49;44.95;93971.81;10468760;28;2547;-56
2023/10/26 06:12:41;;;;;;;;;;;;;;;21.53;44.85;93978.00;10465590;28;2688;-57
2023/10/26 06:17:41;;;;;;;;;;;;;;;21.57;44.84;93978.91;10453705;28;2683;-56
2023/10/26 06:22:41;;;;;;;;;;;;;;;21.59;44.77;93989.88;10467889;28;2542;-54
2023/10/26 06:27:42;;;;;;;;;;;;;;;21.71;44.47;94005.00;10472481;28;2710;-56
2023/10/26 06:32:42;;;;;;;;;;;;;;;21.75;44.15;94009.31;10453493;28;2893;-55
2023/10/26 06:37:42;;;;;;;;;;;;;;;21.79;44.00;94010.22;10474438;28;2619;-55
2023/10/26 06:42:43;;;;;;;;;;;;;;;21.78;44.49;94011.28;10471493;28;2501;-56
2023/10/26 06:47:43;;;;;;;;;;;;;;;21.80;44.48;94006.47;10481085;28;5057;-55
2023/10/26 06:52:43;;;;;;;;;;;;;;;21.83;44.26;94005.84;10461230;28;2524;-54
2023/10/26 06:57:44;;;;;;;;;;;;;;;21.85;43.87;94005.53;10474985;28;2523;-57
2023/10/26 07:02:44;;;;;;;;;;;;;;;21.86;44.12;94001.81;10478160;28;2528;-58
2023/10/26 07:07:44;;;;;;;;;;;;;;;21.85;43.99;94000.25;10473239;28;1557;-58
2023/10/26 07:12:44;;;;;;;;;;;;;;;21.84;43.90;93990.81;10476262;28;1918;-56
2023/10/26 07:17:45;;;;;;;;;;;;;;;21.84;44.40;93988.19;10482227;28;1461;-56
2023/10/26 07:22:45;;;;;;;;;;;;;;;21.81;43.98;93989.59;10474929;28;1546;-55
2023/10/26 07:27:45;;;;;;;;;;;;;;;21.79;44.38;93988.31;10480148;28;1468;-58
2023/10/26 07:32:46;;;;;;;;;;;;;;;21.77;44.67;93991.28;10475269;28;1914;-58
2023/10/26 07:37:47;;;;;;;;;;;;;;;21.78;44.98;93998.09;10483100;28;1416;-54
2023/10/26 07:42:47;;;;;;;;;;;;;;;21.75;45.33;93982.16;10463936;28;1491;-54
2023/10/26 07:47:48;;;;;;;;;;;;;;;21.73;45.48;93979.06;10474361;28;5193;-55
2023/10/26 07:52:48;;;;;;;;;;;;;;;21.72;45.63;93982.81;10480697;28;2005;-56
2023/10/26 07:57:49;;;;;;;;;;;;;;;21.69;45.70;93991.34;10475823;28;2687;-57
2023/10/26 08:02:49;;;;;;;;;;;;;;;21.67;45.62;93977.72;10473256;28;1797;-58
2023/10/26 08:07:52;;;;;;;;;;;;;;;21.66;45.83;93984.84;10486881;28;2788;-57
2023/10/26 08:12:52;;;;;;;;;;;;;;;21.65;45.17;93993.09;10483029;28;1905;-58
2023/10/26 08:17:55;;;;;;;;;;;;;;;21.63;45.32;93995.28;10481031;28;2582;-57
2023/10/26 08:22:55;;;;;;;;;;;;;;;21.59;45.90;93992.53;10475473;28;1821;-58
2023/10/26 08:27:55;;;;;;;;;;;;;;;21.55;45.52;94002.19;10479074;28;1746;-58
2023/10/26 08:32:56;;;;;;;;;;;;;;;21.57;45.28;94002.63;10493592;28;2525;-57
2023/10/26 08:37:56;;;;;;;;;;;;;;;21.56;44.96;93995.78;10462188;28;1570;-56
2023/10/26 08:42:56;;;;;;;;;;;;;;;21.56;44.88;94018.75;10477254;28;1523;-56
2023/10/26 08:47:57;;;;;;;;;;;;;;;21.54;45.32;94023.56;10468375;28;4688;-58
2023/10/26 08:52:57;;;;;;;;;;;;;;;21.52;44.57;94021.25;10464570;28;1901;-54
2023/10/26 08:58:02;;;;;;;;;;;;;;;21.48;44.33;94007.16;10477909;28;1547;-55
2023/10/26 09:03:03;;;;;;;;;;;;;;;21.45;44.20;94001.78;10458128;28;2360;-56
2023/10/26 09:08:17;;;;;;;;;;;;;;;21.42;44.95;94003.19;10481727;28;1793;-57
2023/10/26 09:13:24;;;;;;;;;;;;;;;21.43;44.74;94001.31;10477867;28;2538;-55
2023/10/26 09:18:28;;;;;;;;;;;;;;;21.40;45.13;94007.22;10489480;28;1567;-57
2023/10/26 09:23:28;;;;;;;;;;;;;;;21.41;45.12;93998.25;10478342;28;1704;-55
2023/10/26 09:28:29;;;;;;;;;;;;;;;21.41;45.27;94020.06;10480819;28;2471;-57
2023/10/26 09:33:29;;;;;;;;;;;;;;;21.38;45.42;94006.78;10478054;28;1898;-56
2023/10/26 09:38:36;;;;;;;;;;;;;;;21.38;44.97;94033.91;10479786;28;1489;-57
2023/10/26 09:43:40;;;;;;;;;;;;;;;21.38;44.74;94033.91;10459396;28;1525;-55
2023/10/26 09:48:40;;;;;;;;;;;;;;;21.37;45.29;94026.34;10476285;28;5336;-57
2023/10/26 09:53:41;;;;;;;;;;;;;;;21.35;45.09;94025.88;10480587;28;1965;-58
2023/10/26 09:58:41;;;;;;;;;;;;;;;21.36;45.17;94006.31;10479160;28;2520;-56
2023/10/26 10:03:45;;;;;;;;;;;;;;;21.33;45.16;94007.72;10464487;28;2523;-57
2023/10/26 10:08:58;;;;;;;;;;;;;;;21.33;44.91;94015.63;10479776;28;2590;-57
2023/10/26 10:13:58;;;;;;;;;;;;;;;21.31;45.13;94017.81;10478129;28;1900;-57
2023/10/26 10:19:18;;;;;;;;;;;;;;;21.30;45.40;94032.09;10489022;28;2619;-55
2023/10/26 10:24:37;;;;;;;;;;;;;;;21.30;45.34;94023.41;10486639;28;2691;-56
2023/10/26 10:29:39;;;;;;;;;;;;;;;21.29;44.98;94016.63;10485542;28;1748;-56
2023/10/26 10:34:42;;;;;;;;;;;;;;;21.26;45.56;94019.88;10449705;28;1921;-57
2023/10/26 10:40:02;;;;;;;;;;;;;;;21.24;45.48;94014.94;10481154;28;1574;-57
2023/10/26 10:45:02;;;;;;;;;;;;;;;21.26;45.48;94014.59;10488540;28;2472;-58
2023/10/26 10:50:21;;;;;;;;;;;;;;;21.25;45.56;94005.91;10488724;28;5109;-55
2023/10/26 10:55:25;;;;;;;;;;;;;;;21.23;45.60;93988.88;10484334;28;2528;-57
2023/10/26 11:00:25;;;;;;;;;;;;;;;21.23;45.66;93980.97;10481687;28;1734;-56
2023/10/26 11:05:35;;;;;;;;;;;;;;;21.22;45.58;93969.69;10489049;28;2520;-55
2023/10/26 11:10:35;;;;;;;;;;;;;;;21.21;45.94;93962.06;10486011;28;2640;-57
2023/10/26 11:15:36;;;;;;;;;;;;;;;21.20;45.47;93971.84;10468453;28;1906;-57
2023/10/26 11:20:39;;;;;;;;;;;;;;;21.20;45.24;93947.38;10487565;28;1499;-57
2023/10/26 11:25:41;;;;;;;;;;;;;;;21.18;45.44;93944.28;10469400;28;2564;-58
2023/10/26 11:30:48;;;;;;;;;;;;;;;21.18;45.83;93952.19;10482239;28;2653;-56
2023/10/26 11:35:48;;;;;;;;;;;;;;;21.16;45.42;93939.34;10459167;28;1990;-56
2023/10/26 11:40:48;;;;;;;;;;;;;;;21.16;46.17;93935.94;10464846;28;1573;-57
2023/10/26 11:45:49;;;;;;;;;;;;;;;21.17;45.98;93927.69;10464606;28;1710;-54
2023/10/26 11:50:50;;;;;;;;;;;;;;;21.16;46.02;93930.66;10478976;28;5084;-53
2023/10/26 11:55:50;;;;;;;;;;;;;;;21.18;45.99;93936.38;10482383;28;1980;-57
2023/10/26 12:00:50;;;;;;;;;;;;;;;21.14;46.05;93928.34;10483987;28;1812;-55
2023/10/26 12:05:53;;;;;;;;;;;;;;;21.16;46.04;93933.28;10479595;28;1650;-56
2023/10/26 12:10:54;;;;;;;;;;;;;;;21.14;46.40;93912.53;10478818;28;1922;-56
2023/10/26 12:15:55;;;;;;;;;;;;;;;21.14;46.25;93911.75;10461156;28;2699;-53
2023/10/26 12:20:55;;;;;;;;;;;;;;;21.14;46.42;93904.63;10483143;28;1593;-55
2023/10/26 12:25:55;;;;;;;;;;;;;;;21.13;46.65;93894.41;10480198;28;1599;-54
2023/10/26 12:30:56;;;;;;;;;;;;;;;21.14;46.69;93903.84;10484149;28;1989;-56
2023/10/26 12:35:56;;;;;;;;;;;;;;;21.13;46.86;93899.66;10479399;28;2434;-55
2023/10/26 12:40:56;;;;;;;;;;;;;;;21.12;46.54;93895.50;10484800;28;2551;-57
2023/10/26 12:45:56;;;;;;;;;;;;;;;21.12;46.63;93895.50;10476655;28;2374;-56
2023/10/26 12:50:57;;;;;;;;;;;;;;;21.12;46.46;93903.41;10480485;28;5207;-56
2023/10/26 12:55:57;;;;;;;;;;;;;;;21.13;46.59;93902.31;10477571;28;2583;-55
2023/10/26 13:00:57;;;;;;;;;;;;;;;21.12;46.58;93895.50;10464257;28;1818;-57
2023/10/26 13:06:00;;;;;;;;;;;;;;;21.11;46.86;93891.31;10474068;28;1722;-56
2023/10/26 13:11:00;;;;;;;;;;;;;;;21.10;46.54;93871.34;10459699;28;2449;-55
2023/10/26 13:16:00;;;;;;;;;;;;;;;21.09;46.36;93875.84;10475368;28;1742;-56
2023/10/26 13:21:02;;;;;;;;;;;;;;;21.08;46.41;93870.91;10463222;28;2694;-55
2023/10/26 13:26:03;;;;;;;;;;;;;;;21.06;46.93;93882.50;10481345;28;2584;-56
2023/10/26 13:31:03;;;;;;;;;;;;;;;21.08;46.95;93884.06;10477388;28;1977;-56
2023/10/26 13:36:03;;;;;;;;;;;;;;;21.06;47.21;93876.50;10477734;28;2570;-57
2023/10/26 13:41:04;;;;;;;;;;;;;;;21.12;47.09;93879.69;10478019;28;2524;-55
2023/10/26 13:46:05;;;;;;;;;;;;;;;21.14;47.39;93877.50;10476737;28;1573;-55
2023/10/26 13:51:05;;;;;;;;;;;;;;;21.18;46.82;93878.41;10459313;28;5146;-57
2023/10/26 13:56:05;;;;;;;;;;;;;;;21.24;46.50;93890.31;10474263;28;1524;-56
2023/10/26 14:01:12;;;;;;;;;;;;;;;21.28;46.51;93888.56;10475424;28;1647;-56
2023/10/26 14:06:12;;;;;;;;;;;;;;;21.34;45.99;93884.63;10459321;28;1469;-57
2023/10/26 14:11:16;;;;;;;;;;;;;;;21.38;46.15;93886.31;10475743;28;1969;-56
2023/10/26 14:16:19;;;;;;;;;;;;;;;21.43;45.80;93880.06;10476858;28;2527;-53
2023/10/26 14:21:21;;;;;;;;;;;;;;;21.47;45.97;93865.16;10469672;28;1718;-54
2023/10/26 14:26:21;;;;;;;;;;;;;;;21.51;45.77;93863.41;10479106;28;1922;-55
2023/10/26 14:31:22;;;;;;;;;;;;;;;21.57;45.86;93862.13;10476620;28;1985;-54
2023/10/26 14:36:22;;;;;;;;;;;;;;;21.63;45.84;93858.19;10478108;28;1467;-57
2023/10/26 14:41:22;;;;;;;;;;;;;;;21.67;45.88;93864.34;10480248;28;2618;-58
2023/10/26 14:46:23;;;;;;;;;;;;;;;21.71;45.81;93858.09;10480116;28;2468;-57
2023/10/26 14:51:23;;;;;;;;;;;;;;;21.76;45.59;93859.75;10436377;28;5083;-56
2023/10/26 14:56:23;;;;;;;;;;;;;;;21.81;45.53;93856.91;10477058;28;2540;-56
2023/10/26 15:01:23;;;;;;;;;;;;;;;21.83;45.50;93844.19;10482221;28;2473;-55
2023/10/26 15:06:24;;;;;;;;;;;;;;;21.87;45.59;93842.44;10482044;28;1919;-58
2023/10/26 15:11:24;;;;;;;;;;;;;;;21.90;45.43;93847.06;10479440;28;1987;-56
2023/10/26 15:16:26;;;;;;;;;;;;;;;21.93;45.79;93829.84;10483716;28;1552;-57
2023/10/26 15:21:26;;;;;;;;;;;;;;;21.97;45.32;93820.91;10484338;28;2891;-57
2023/10/26 15:26:26;;;;;;;;;;;;;;;22.01;45.49;93811.25;10486037;28;2665;-56
2023/10/26 15:31:27;;;;;;;;;;;;;;;22.04;45.32;93804.53;10473841;28;2541;-58
2023/10/26 15:36:27;;;;;;;;;;;;;;;21.85;45.09;93797.16;10470187;28;2622;-58
2023/10/26 15:41:27;;;;;;;;;;;;;;;21.74;45.41;93796.78;10465954;28;2733;-56
2023/10/26 15:46:27;;;;;;;;;;;;;;;21.60;45.70;93795.53;10470227;28;2565;-57
2023/10/26 15:51:29;;;;;;;;;;;;;;;21.53;45.75;93795.31;10479048;28;5109;-58
2023/10/26 15:56:29;;;;;;;;;;;;;;;21.43;45.74;93795.72;10472501;28;2650;-55
2023/10/26 16:01:30;;;;;;;;;;;;;;;21.39;45.73;93789.56;10471821;28;2570;-57
2023/10/26 16:06:30;;;;;;;;;;;;;;;21.57;45.52;93791.72;10461384;28;2675;-55
2023/10/26 16:11:30;;;;;;;;;;;;;;;21.61;45.66;93797.09;10470211;28;3165;-57
2023/10/26 16:16:31;;;;;;;;;;;;;;;21.67;45.73;93795.78;10471727;28;2599;-56
2023/10/26 16:21:31;;;;;;;;;;;;;;;21.74;45.81;93802.06;10473296;28;2595;-57
2023/10/26 16:26:31;;;;;;;;;;;;;;;21.77;45.21;93803.28;10472719;28;2556;-57
2023/10/26 16:31:32;;;;;;;;;;;;;;;21.82;45.46;93797.81;10477937;28;2524;-56
2023/10/26 16:36:32;;;;;;;;;;;;;;;21.87;45.40;93797.59;10458959;28;2835;-55
2023/10/26 16:41:32;;;;;;;;;;;;;;;21.90;44.88;93789.03;10475605;28;2581;-57
2023/10/26 16:46:32;;;;;;;;;;;;;;;21.94;45.18;93789.94;10479393;28;2964;-57
2023/10/26 16:51:33;;;;;;;;;;;;;;;21.99;44.62;93791.59;10483135;28;5109;-56
2023/10/26 16:56:33;;;;;;;;;;;;;;;22.07;44.74;93783.53;10484772;28;1973;-53
2023/10/26 17:01:33;;;;;;;;;;;;;;;22.12;44.49;93782.56;10477263;28;2587;-55
2023/10/26 17:06:34;;;;;;;;;;;;;;;22.13;44.38;93776.97;10481407;28;2547;-53
2023/10/26 17:11:34;;;;;;;;;;;;;;;22.18;43.82;93774.09;10477039;28;2005;-56
2023/10/26 17:16:34;;;;;;;;;;;;;;;22.19;44.64;93759.81;10482426;28;2067;-53
2023/10/26 17:21:34;;;;;;;;;;;;;;;22.21;44.47;93757.63;10481726;28;1696;-57
2023/10/26 17:26:34;;;;;;;;;;;;;;;22.18;44.05;93757.47;10486272;28;2529;-56
2023/10/26 17:31:35;;;;;;;;;;;;;;;22.14;44.48;93753.97;10467227;28;1977;-56
2023/10/26 17:36:35;;;;;;;;;;;;;;;22.12;44.52;93756.16;10482295;28;1557;-56
2023/10/26 17:41:35;;;;;;;;;;;;;;;22.09;44.71;93759.47;10485471;28;1583;-56
2023/10/26 17:46:36;;;;;;;;;;;;;;;22.06;44.38;93763.53;10481312;28;2526;-55
2023/10/26 17:51:36;;;;;;;;;;;;;;;22.07;44.52;93767.72;10479288;28;5037;-56
2023/10/26 17:56:36;;;;;;;;;;;;;;;22.12;43.96;93791.25;10453000;28;2663;-56
2023/10/26 18:01:38;;;;;;;;;;;;;;;22.14;44.19;93791.69;10472745;28;2603;-54
2023/10/26 18:06:40;;;;;;;;;;;;;;;22.15;44.08;93785.31;10480433;28;2895;-55
2023/10/26 18:11:40;;;;;;;;;;;;;;;22.11;44.92;93770.47;10471050;28;2675;-56
2023/10/26 18:16:41;;;;;;;;;;;;;;;22.11;44.66;93771.25;10470030;28;2594;-56
2023/10/26 18:21:41;;;;;;;;;;;;;;;22.12;44.68;93764.88;10478515;28;2011;-55
2023/10/26 18:26:42;;;;;;;;;;;;;;;22.09;44.87;93765.50;10480402;28;2044;-54
2023/10/26 18:31:42;;;;;;;;;;;;;;;22.07;44.62;93762.44;10478619;28;1910;-56
2023/10/26 18:36:42;;;;;;;;;;;;;;;22.08;44.81;93758.72;10490618;28;1945;-54
2023/10/26 18:41:44;;;;;;;;;;;;;;;22.07;44.95;93765.06;10488922;28;1631;-57
2023/10/26 18:46:44;;;;;;;;;;;;;;;22.06;44.55;93758.25;10488734;28;1495;-58
2023/10/26 18:51:44;;;;;;;;;;;;;;;22.05;44.57;93769.91;10485749;28;5418;-54
2023/10/26 18:56:45;;;;;;;;;;;;;;;22.02;44.80;93770.59;10489829;28;1484;-55
2023/10/26 19:01:45;;;;;;;;;;;;;;;22.01;44.82;93761.13;10485726;28;1663;-55
2023/10/26 19:06:45;;;;;;;;;;;;;;;21.98;44.77;93763.66;10493103;28;1639;-55
2023/10/26 19:11:45;;;;;;;;;;;;;;;21.98;44.55;93772.34;10488178;28;1910;-54
2023/10/26 19:16:46;;;;;;;;;;;;;;;21.97;44.58;93778.69;10491971;28;1632;-57
2023/10/26 19:21:46;;;;;;;;;;;;;;;21.95;44.68;93770.34;10487899;28;1717;-56
2023/10/26 19:26:47;;;;;;;;;;;;;;;21.92;44.88;93781.56;10488084;28;1530;-56
2023/10/26 19:31:47;;;;;;;;;;;;;;;21.91;44.90;93785.28;10490122;28;1979;-56
2023/10/26 19:36:47;;;;;;;;;;;;;;;21.90;44.81;93798.81;10487521;28;2652;-56
2023/10/26 19:41:48;;;;;;;;;;;;;;;21.86;45.12;93785.53;10487344;28;1512;-58
2023/10/26 19:46:48;;;;;;;;;;;;;;;21.88;44.93;93788.59;10484375;28;1476;-57
2023/10/26 19:51:48;;;;;;;;;;;;;;;21.85;45.29;93792.66;10488616;28;4878;-54
2023/10/26 19:56:48;;;;;;;;;;;;;;;21.84;44.83;93793.00;10487833;28;1496;-56
2023/10/26 20:01:49;;;;;;;;;;;;;;;21.83;44.98;93794.84;10486336;28;1560;-56
2023/10/26 20:06:49;;;;;;;;;;;;;;;21.81;45.01;93781.22;10492354;28;1831;-56
2023/10/26 20:11:50;;;;;;;;;;;;;;;21.82;45.03;93790.66;10469703;28;1926;-57
2023/10/26 20:16:50;;;;;;;;;;;;;;;21.80;45.33;93778.91;10486430;28;1467;-57
2023/10/26 20:21:51;;;;;;;;;;;;;;;21.81;45.14;93775.94;10488495;28;2497;-57
2023/10/26 20:26:52;;;;;;;;;;;;;;;21.80;44.84;93768.34;10487426;28;1504;-57
2023/10/26 20:31:52;;;;;;;;;;;;;;;21.78;45.02;93771.28;10487356;28;1906;-57
2023/10/26 20:36:53;;;;;;;;;;;;;;;21.77;45.13;93759.22;10489763;28;1627;-57
2023/10/26 20:41:53;;;;;;;;;;;;;;;21.76;45.03;93751.63;10484566;28;1623;-57
2023/10/26 20:46:53;;;;;;;;;;;;;;;21.75;45.10;93760.63;10483561;28;1522;-55
2023/10/26 20:51:53;;;;;;;;;;;;;;;21.75;45.12;93750.09;10477527;28;5136;-57
2023/10/26 20:56:54;;;;;;;;;;;;;;;21.74;45.01;93738.75;10486982;28;1424;-56
2023/10/26 21:01:54;;;;;;;;;;;;;;;21.72;45.29;93745.47;10468141;28;1659;-57
2023/10/26 21:06:54;;;;;;;;;;;;;;;21.69;45.44;93731.09;10468321;28;1522;-57
2023/10/26 21:11:54;;;;;;;;;;;;;;;21.71;45.12;93720.19;10485400;28;1890;-55
2023/10/26 21:16:55;;;;;;;;;;;;;;;21.72;45.31;93711.19;10484058;28;1707;-57
2023/10/26 21:21:57;;;;;;;;;;;;;;;21.68;45.79;93708.44;10481191;28;2477;-55
2023/10/26 21:26:57;;;;;;;;;;;;;;;21.66;45.76;93699.31;10485266;28;1575;-58
2023/10/26 21:31:57;;;;;;;;;;;;;;;21.67;45.94;93698.22;10480822;28;1909;-57
2023/10/26 21:36:58;;;;;;;;;;;;;;;21.68;45.87;93683.94;10469679;28;1716;-57
2023/10/26 21:41:58;;;;;;;;;;;;;;;21.64;45.97;93675.13;10485880;28;1547;-58
2023/10/26 21:46:58;;;;;;;;;;;;;;;21.63;46.18;93670.97;10476149;28;1494;-58
2023/10/26 21:51:59;;;;;;;;;;;;;;;21.65;46.00;93674.06;10463810;28;5062;-57
2023/10/26 21:56:59;;;;;;;;;;;;;;;21.64;45.81;93668.00;10485692;28;1453;-56
2023/10/26 22:01:59;;;;;;;;;;;;;;;21.62;46.16;93658.88;10460748;28;1654;-57
2023/10/26 22:06:59;;;;;;;;;;;;;;;21.61;46.04;93644.94;10477641;28;1424;-57
2023/10/26 22:12:00;;;;;;;;;;;;;;;21.63;45.68;93647.25;10486460;28;1909;-57
2023/10/26 22:17:00;;;;;;;;;;;;;;;21.61;45.95;93636.25;10488671;28;1826;-57
2023/10/26 22:22:01;;;;;;;;;;;;;;;21.59;46.14;93633.19;10484929;28;2528;-56
2023/10/26 22:27:01;;;;;;;;;;;;;;;21.59;45.99;93620.78;10489362;28;1666;-57
2023/10/26 22:32:01;;;;;;;;;;;;;;;21.60;46.06;93616.25;10486939;28;1910;-55
2023/10/26 22:37:01;;;;;;;;;;;;;;;21.60;45.79;93593.31;10488344;28;1664;-56
2023/10/26 22:42:02;;;;;;;;;;;;;;;21.60;45.69;93577.50;10487996;28;1925;-57
2023/10/26 22:47:02;;;;;;;;;;;;;;;21.58;45.65;93569.13;10489314;28;1499;-57
2023/10/26 22:52:05;;;;;;;;;;;;;;;21.55;45.94;93561.91;10482943;28;5220;-58
2023/10/26 22:57:05;;;;;;;;;;;;;;;21.55;45.82;93563.78;10485593;28;1451;-57
2023/10/26 23:02:05;;;;;;;;;;;;;;;21.52;45.97;93559.91;10485579;28;1578;-58
2023/10/26 23:07:05;;;;;;;;;;;;;;;21.54;45.39;93559.59;10489844;28;2423;-57
2023/10/26 23:12:06;;;;;;;;;;;;;;;21.53;45.62;93563.34;10481163;28;1973;-53
2023/10/26 23:17:06;;;;;;;;;;;;;;;21.50;45.88;93550.81;10484687;28;1586;-56
2023/10/26 23:22:08;;;;;;;;;;;;;;;21.50;45.74;93558.72;10483194;28;1629;-57
2023/10/26 23:27:09;;;;;;;;;;;;;;;21.50;45.59;93551.56;10481783;28;1789;-57
2023/10/26 23:32:09;;;;;;;;;;;;;;;21.49;45.53;93546.66;10475313;28;2570;-55
2023/10/26 23:37:10;;;;;;;;;;;;;;;21.47;45.48;93544.34;10477913;28;2601;-56
2023/10/26 23:42:10;;;;;;;;;;;;;;;21.42;45.24;93541.91;10478003;28;2583;-56
2023/10/26 23:47:11;;;;;;;;;;;;;;;21.39;45.26;93526.00;10474418;28;2928;-57
2023/10/26 23:52:12;;;;;;;;;;;;;;;21.35;45.34;93517.25;10480875;28;6394;-56
2023/10/26 23:57:12;;;;;;;;;;;;;;;21.30;45.34;93506.91;10473042;28;2607;-55
